createdAt,value
2017-06-08T00:00:03.712Z,19.64
2017-06-08T00:00:35.991Z,19.72
2017-06-08T00:01:08.263Z,19.82
2017-06-08T00:01:40.556Z,19.79
2017-06-08T00:02:12.831Z,19.65
2017-06-08T00:02:45.112Z,19.67
2017-06-08T00:03:17.389Z,19.75
2017-06-08T00:03:49.668Z,19.72
2017-06-08T00:04:21.954Z,19.75
2017-06-08T00:04:54.229Z,19.78
2017-06-08T00:05:26.525Z,19.65
2017-06-08T00:05:58.813Z,19.75
2017-06-08T00:06:31.088Z,19.71
2017-06-08T00:07:03.385Z,19.75
2017-06-08T00:07:35.674Z,19.74
2017-06-08T00:08:07.944Z,19.72
2017-06-08T00:08:40.213Z,19.72
2017-06-08T00:09:12.497Z,19.79
2017-06-08T00:09:44.774Z,19.7
2017-06-08T00:10:17.051Z,19.75
2017-06-08T00:10:49.322Z,19.71
2017-06-08T00:11:21.586Z,19.74
2017-06-08T00:11:53.873Z,19.68
2017-06-08T00:12:26.158Z,19.71
2017-06-08T00:12:58.438Z,19.79
2017-06-08T00:13:30.746Z,19.67
2017-06-08T00:14:03.020Z,19.74
2017-06-08T00:14:35.302Z,19.65
2017-06-08T00:15:07.587Z,19.71
2017-06-08T00:15:39.875Z,19.72
2017-06-08T00:16:12.149Z,19.7
2017-06-08T00:16:44.435Z,19.63
2017-06-08T00:17:16.711Z,19.72
2017-06-08T00:17:48.996Z,19.72
2017-06-08T00:18:21.274Z,19.68
2017-06-08T00:18:53.562Z,19.71
2017-06-08T00:19:25.829Z,19.65
2017-06-08T00:19:58.096Z,19.74
2017-06-08T00:20:30.379Z,19.65
2017-06-08T00:21:02.667Z,19.7
2017-06-08T00:21:34.944Z,19.72
2017-06-08T00:22:07.208Z,19.7
2017-06-08T00:22:39.496Z,19.65
2017-06-08T00:23:11.743Z,19.67
2017-06-08T00:23:44.006Z,19.68
2017-06-08T00:24:16.769Z,19.74
2017-06-08T00:24:49.023Z,19.71
2017-06-08T00:25:21.266Z,19.67
2017-06-08T00:25:53.530Z,19.71
2017-06-08T00:26:25.769Z,19.64
2017-06-08T00:26:58.025Z,19.74
2017-06-08T00:27:30.381Z,19.64
2017-06-08T00:28:02.637Z,19.65
2017-06-08T00:28:34.896Z,19.61
2017-06-08T00:29:07.154Z,19.67
2017-06-08T00:29:39.410Z,19.65
2017-06-08T00:30:11.829Z,19.65
2017-06-08T00:30:44.081Z,19.65
2017-06-08T00:31:16.337Z,19.67
2017-06-08T00:31:48.714Z,19.65
2017-06-08T00:32:20.972Z,19.67
2017-06-08T00:32:53.239Z,19.68
2017-06-08T00:33:25.525Z,19.68
2017-06-08T00:33:57.806Z,19.67
2017-06-08T00:34:30.089Z,19.65
2017-06-08T00:35:02.375Z,19.64
2017-06-08T00:35:34.654Z,19.65
2017-06-08T00:36:06.931Z,19.7
2017-06-08T00:36:39.211Z,19.67
2017-06-08T00:37:11.485Z,19.71
2017-06-08T00:37:43.770Z,19.67
2017-06-08T00:38:16.056Z,19.67
2017-06-08T00:38:48.326Z,19.65
2017-06-08T00:39:20.608Z,19.68
2017-06-08T00:39:52.884Z,19.67
2017-06-08T00:40:25.159Z,19.71
2017-06-08T00:40:57.443Z,19.65
2017-06-08T00:41:29.715Z,19.64
2017-06-08T00:42:01.995Z,19.65
2017-06-08T00:42:34.281Z,19.61
2017-06-08T00:43:06.562Z,19.7
2017-06-08T00:43:38.832Z,19.68
2017-06-08T00:44:11.112Z,19.65
2017-06-08T00:44:43.385Z,19.7
2017-06-08T00:45:15.670Z,19.7
2017-06-08T00:45:47.978Z,19.65
2017-06-08T00:46:20.258Z,19.68
2017-06-08T00:46:52.541Z,19.65
2017-06-08T00:47:24.822Z,19.65
2017-06-08T00:47:57.093Z,19.63
2017-06-08T00:48:29.363Z,19.71
2017-06-08T00:49:01.649Z,19.67
2017-06-08T00:49:33.930Z,19.65
2017-06-08T00:50:06.228Z,19.68
2017-06-08T00:50:38.541Z,19.68
2017-06-08T00:51:10.831Z,19.7
2017-06-08T00:51:43.107Z,19.68
2017-06-08T00:52:15.407Z,19.65
2017-06-08T00:52:47.675Z,19.7
2017-06-08T00:53:19.932Z,19.65
2017-06-08T00:53:52.880Z,19.71
2017-06-08T00:54:25.122Z,19.61
2017-06-08T00:54:57.368Z,19.65
2017-06-08T00:55:29.614Z,19.67
2017-06-08T00:56:01.884Z,19.65
2017-06-08T00:56:34.145Z,19.65
2017-06-08T00:57:06.409Z,19.68
2017-06-08T00:57:38.653Z,19.67
2017-06-08T00:58:11.853Z,19.7
2017-06-08T00:58:44.139Z,19.64
2017-06-08T00:59:17.227Z,19.61
2017-06-08T00:59:49.513Z,19.71
2017-06-08T01:00:21.753Z,19.65
2017-06-08T01:00:54.003Z,19.64
2017-06-08T01:01:26.261Z,19.68
2017-06-08T01:01:58.567Z,19.63
2017-06-08T01:02:30.850Z,19.64
2017-06-08T01:03:03.116Z,19.64
2017-06-08T01:03:35.386Z,19.65
2017-06-08T01:04:07.635Z,19.65
2017-06-08T01:04:39.886Z,19.65
2017-06-08T01:05:12.113Z,19.55
2017-06-08T01:05:44.370Z,19.63
2017-06-08T01:06:16.683Z,19.65
2017-06-08T01:06:48.942Z,19.61
2017-06-08T01:07:21.834Z,19.68
2017-06-08T01:07:54.084Z,19.67
2017-06-08T01:08:26.341Z,19.57
2017-06-08T01:08:58.587Z,19.65
2017-06-08T01:09:31.739Z,19.63
2017-06-08T01:10:04.004Z,19.67
2017-06-08T01:10:36.274Z,19.64
2017-06-08T01:11:08.520Z,19.64
2017-06-08T01:11:40.780Z,19.6
2017-06-08T01:12:13.027Z,19.65
2017-06-08T01:12:45.269Z,19.6
2017-06-08T01:13:17.562Z,19.63
2017-06-08T01:13:49.838Z,19.63
2017-06-08T01:14:22.109Z,19.64
2017-06-08T01:14:54.384Z,19.63
2017-06-08T01:15:26.651Z,19.6
2017-06-08T01:15:58.932Z,19.56
2017-06-08T01:16:31.207Z,19.6
2017-06-08T01:17:03.475Z,19.7
2017-06-08T01:17:35.758Z,19.61
2017-06-08T01:18:08.038Z,19.63
2017-06-08T01:18:40.318Z,19.64
2017-06-08T01:19:12.595Z,19.63
2017-06-08T01:19:44.883Z,19.6
2017-06-08T01:20:17.169Z,19.61
2017-06-08T01:20:49.435Z,19.63
2017-06-08T01:21:21.711Z,19.64
2017-06-08T01:21:53.987Z,19.64
2017-06-08T01:22:26.257Z,19.61
2017-06-08T01:22:58.521Z,19.63
2017-06-08T01:23:30.793Z,19.6
2017-06-08T01:24:03.075Z,19.65
2017-06-08T01:24:35.349Z,19.57
2017-06-08T01:25:07.614Z,19.61
2017-06-08T01:25:39.883Z,19.64
2017-06-08T01:26:12.175Z,19.61
2017-06-08T01:26:44.453Z,19.57
2017-06-08T01:27:16.732Z,19.6
2017-06-08T01:27:49.020Z,19.63
2017-06-08T01:28:21.301Z,19.6
2017-06-08T01:28:53.582Z,19.61
2017-06-08T01:29:25.849Z,19.57
2017-06-08T01:29:58.140Z,19.56
2017-06-08T01:30:30.416Z,19.61
2017-06-08T01:31:02.701Z,19.64
2017-06-08T01:31:34.991Z,19.61
2017-06-08T01:32:07.267Z,19.63
2017-06-08T01:32:39.550Z,19.56
2017-06-08T01:33:11.805Z,19.57
2017-06-08T01:33:44.071Z,19.64
2017-06-08T01:34:16.326Z,19.61
2017-06-08T01:34:48.567Z,19.53
2017-06-08T01:35:20.824Z,19.56
2017-06-08T01:35:53.085Z,19.63
2017-06-08T01:36:25.345Z,19.63
2017-06-08T01:36:57.596Z,19.5
2017-06-08T01:37:30.805Z,19.5
2017-06-08T01:38:03.070Z,19.55
2017-06-08T01:38:35.317Z,19.61
2017-06-08T01:39:07.577Z,19.61
2017-06-08T01:39:39.834Z,19.64
2017-06-08T01:40:12.074Z,19.5
2017-06-08T01:40:44.419Z,19.56
2017-06-08T01:41:17.253Z,19.63
2017-06-08T01:41:49.515Z,19.56
2017-06-08T01:42:21.759Z,19.63
2017-06-08T01:42:54.018Z,19.52
2017-06-08T01:43:26.745Z,19.5
2017-06-08T01:43:59.005Z,19.57
2017-06-08T01:44:31.299Z,19.63
2017-06-08T01:45:03.566Z,19.56
2017-06-08T01:45:35.820Z,19.61
2017-06-08T01:46:08.085Z,19.55
2017-06-08T01:46:40.350Z,19.6
2017-06-08T01:47:12.586Z,19.63
2017-06-08T01:47:44.879Z,19.52
2017-06-08T01:48:17.123Z,19.55
2017-06-08T01:48:49.380Z,19.52
2017-06-08T01:49:21.612Z,19.6
2017-06-08T01:49:53.865Z,19.57
2017-06-08T01:50:26.146Z,19.56
2017-06-08T01:50:58.420Z,19.52
2017-06-08T01:51:30.682Z,19.49
2017-06-08T01:52:02.925Z,19.55
2017-06-08T01:52:35.181Z,19.5
2017-06-08T01:53:08.377Z,19.6
2017-06-08T01:53:40.670Z,19.55
2017-06-08T01:54:12.918Z,19.6
2017-06-08T01:54:45.868Z,19.56
2017-06-08T01:55:18.148Z,19.56
2017-06-08T01:55:50.503Z,19.52
2017-06-08T01:56:22.747Z,19.49
2017-06-08T01:56:55.029Z,19.63
2017-06-08T01:57:27.292Z,19.53
2017-06-08T01:57:59.543Z,19.52
2017-06-08T01:58:31.794Z,19.5
2017-06-08T01:59:04.816Z,19.52
2017-06-08T01:59:37.064Z,19.55
2017-06-08T02:00:09.332Z,19.56
2017-06-08T02:00:41.579Z,19.46
2017-06-08T02:01:13.833Z,19.57
2017-06-08T02:01:46.080Z,19.52
2017-06-08T02:02:18.340Z,19.52
2017-06-08T02:02:50.600Z,19.5
2017-06-08T02:03:22.846Z,19.52
2017-06-08T02:03:55.117Z,19.53
2017-06-08T02:04:27.915Z,19.49
2017-06-08T02:05:00.162Z,19.5
2017-06-08T02:05:32.422Z,19.5
2017-06-08T02:06:04.680Z,19.53
2017-06-08T02:06:37.888Z,19.52
2017-06-08T02:07:10.150Z,19.47
2017-06-08T02:07:43.250Z,19.52
2017-06-08T02:08:15.516Z,19.49
2017-06-08T02:08:47.784Z,19.56
2017-06-08T02:09:20.050Z,19.55
2017-06-08T02:09:52.282Z,19.5
2017-06-08T02:10:24.535Z,19.53
2017-06-08T02:10:56.802Z,19.5
2017-06-08T02:11:29.088Z,19.52
2017-06-08T02:12:02.309Z,19.57
2017-06-08T02:12:34.551Z,19.61
2017-06-08T02:13:06.824Z,19.52
2017-06-08T02:13:39.095Z,19.47
2017-06-08T02:14:11.380Z,19.52
2017-06-08T02:14:43.652Z,19.52
2017-06-08T02:15:15.915Z,19.5
2017-06-08T02:15:48.189Z,19.57
2017-06-08T02:16:20.469Z,19.5
2017-06-08T02:16:52.735Z,19.6
2017-06-08T02:17:25.005Z,19.53
2017-06-08T02:17:57.288Z,19.47
2017-06-08T02:18:29.565Z,19.49
2017-06-08T02:19:01.838Z,19.56
2017-06-08T02:19:34.117Z,19.52
2017-06-08T02:20:06.395Z,19.47
2017-06-08T02:20:38.698Z,19.53
2017-06-08T02:21:10.987Z,19.55
2017-06-08T02:21:43.273Z,19.49
2017-06-08T02:22:15.562Z,19.5
2017-06-08T02:22:47.841Z,19.45
2017-06-08T02:23:20.113Z,19.46
2017-06-08T02:23:52.379Z,19.49
2017-06-08T02:24:24.647Z,19.52
2017-06-08T02:24:56.917Z,19.47
2017-06-08T02:25:29.166Z,19.55
2017-06-08T02:26:01.893Z,19.53
2017-06-08T02:26:34.170Z,19.47
2017-06-08T02:27:06.459Z,19.49
2017-06-08T02:27:38.709Z,19.5
2017-06-08T02:28:10.962Z,19.5
2017-06-08T02:28:43.223Z,19.52
2017-06-08T02:29:15.463Z,19.5
2017-06-08T02:29:47.707Z,19.53
2017-06-08T02:30:19.960Z,19.53
2017-06-08T02:30:52.777Z,19.5
2017-06-08T02:31:25.030Z,19.49
2017-06-08T02:31:57.435Z,19.5
2017-06-08T02:32:29.718Z,19.55
2017-06-08T02:33:02.877Z,19.53
2017-06-08T02:33:35.204Z,19.5
2017-06-08T02:34:07.472Z,19.55
2017-06-08T02:34:39.726Z,19.5
2017-06-08T02:35:11.950Z,19.53
2017-06-08T02:35:44.207Z,19.5
2017-06-08T02:36:16.470Z,19.49
2017-06-08T02:36:49.769Z,19.49
2017-06-08T02:37:22.009Z,19.53
2017-06-08T02:37:54.271Z,19.49
2017-06-08T02:38:26.516Z,19.5
2017-06-08T02:38:58.778Z,19.55
2017-06-08T02:39:31.927Z,19.5
2017-06-08T02:40:04.175Z,19.55
2017-06-08T02:40:36.441Z,19.56
2017-06-08T02:41:08.737Z,19.46
2017-06-08T02:41:40.980Z,19.52
2017-06-08T02:42:13.231Z,19.5
2017-06-08T02:42:45.486Z,19.5
2017-06-08T02:43:17.757Z,19.5
2017-06-08T02:43:50.728Z,19.52
2017-06-08T02:44:22.965Z,19.55
2017-06-08T02:44:55.217Z,19.43
2017-06-08T02:45:27.451Z,19.52
2017-06-08T02:45:59.699Z,19.55
2017-06-08T02:46:31.942Z,19.57
2017-06-08T02:47:04.198Z,19.49
2017-06-08T02:47:36.475Z,19.55
2017-06-08T02:48:08.742Z,19.47
2017-06-08T02:48:40.991Z,19.49
2017-06-08T02:49:13.263Z,19.52
2017-06-08T02:49:45.520Z,19.46
2017-06-08T02:50:17.792Z,19.52
2017-06-08T02:50:50.057Z,19.53
2017-06-08T02:51:22.310Z,19.55
2017-06-08T02:51:54.566Z,19.43
2017-06-08T02:52:26.813Z,19.53
2017-06-08T02:52:59.071Z,19.5
2017-06-08T02:53:31.325Z,19.49
2017-06-08T02:54:03.600Z,19.6
2017-06-08T02:54:35.852Z,19.52
2017-06-08T02:55:08.789Z,19.5
2017-06-08T02:55:41.012Z,19.47
2017-06-08T02:56:13.275Z,19.61
2017-06-08T02:56:45.528Z,19.47
2017-06-08T02:57:18.351Z,19.49
2017-06-08T02:57:50.598Z,19.49
2017-06-08T02:58:22.842Z,19.47
2017-06-08T02:58:55.895Z,19.46
2017-06-08T02:59:28.150Z,19.5
2017-06-08T03:00:00.450Z,19.43
2017-06-08T03:00:32.744Z,19.52
2017-06-08T03:01:05.022Z,19.46
2017-06-08T03:01:37.282Z,19.56
2017-06-08T03:02:10.406Z,19.47
2017-06-08T03:02:42.686Z,19.6
2017-06-08T03:03:14.957Z,19.45
2017-06-08T03:03:47.224Z,19.5
2017-06-08T03:04:19.499Z,19.5
2017-06-08T03:04:51.775Z,19.43
2017-06-08T03:05:24.058Z,19.47
2017-06-08T03:05:56.331Z,19.52
2017-06-08T03:06:28.611Z,19.46
2017-06-08T03:07:00.883Z,19.47
2017-06-08T03:07:33.164Z,19.47
2017-06-08T03:08:05.448Z,19.46
2017-06-08T03:08:37.718Z,19.47
2017-06-08T03:09:09.988Z,19.47
2017-06-08T03:09:42.242Z,19.47
2017-06-08T03:10:14.516Z,19.46
2017-06-08T03:10:46.794Z,19.4
2017-06-08T03:11:19.063Z,19.5
2017-06-08T03:11:51.332Z,19.47
2017-06-08T03:12:23.612Z,19.45
2017-06-08T03:12:55.890Z,19.5
2017-06-08T03:13:28.168Z,19.47
2017-06-08T03:14:00.454Z,19.49
2017-06-08T03:14:32.735Z,19.49
2017-06-08T03:15:05.017Z,19.53
2017-06-08T03:15:37.290Z,19.46
2017-06-08T03:16:09.546Z,19.47
2017-06-08T03:16:41.818Z,19.47
2017-06-08T03:17:14.107Z,19.47
2017-06-08T03:17:46.411Z,19.46
2017-06-08T03:18:18.693Z,19.46
2017-06-08T03:18:50.979Z,19.5
2017-06-08T03:19:23.262Z,19.49
2017-06-08T03:19:55.526Z,19.42
2017-06-08T03:20:27.800Z,19.38
2017-06-08T03:21:00.074Z,19.4
2017-06-08T03:21:32.366Z,19.43
2017-06-08T03:22:04.654Z,19.49
2017-06-08T03:22:36.927Z,19.6
2017-06-08T03:23:09.187Z,19.47
2017-06-08T03:23:41.454Z,19.43
2017-06-08T03:24:13.724Z,19.45
2017-06-08T03:24:45.995Z,19.52
2017-06-08T03:25:18.282Z,19.53
2017-06-08T03:25:50.566Z,19.49
2017-06-08T03:26:22.846Z,19.52
2017-06-08T03:26:55.120Z,19.53
2017-06-08T03:27:27.437Z,19.52
2017-06-08T03:27:59.724Z,19.43
2017-06-08T03:28:32.005Z,19.45
2017-06-08T03:29:04.275Z,19.45
2017-06-08T03:29:36.549Z,19.52
2017-06-08T03:30:08.817Z,19.52
2017-06-08T03:30:41.086Z,19.55
2017-06-08T03:31:13.364Z,19.46
2017-06-08T03:31:45.650Z,19.49
2017-06-08T03:32:17.907Z,19.53
2017-06-08T03:32:50.170Z,19.5
2017-06-08T03:33:22.447Z,19.47
2017-06-08T03:33:54.735Z,19.47
2017-06-08T03:34:27.010Z,19.49
2017-06-08T03:34:59.289Z,19.49
2017-06-08T03:35:31.573Z,19.5
2017-06-08T03:36:03.848Z,19.55
2017-06-08T03:36:36.123Z,19.43
2017-06-08T03:37:08.405Z,19.57
2017-06-08T03:37:40.671Z,19.52
2017-06-08T03:38:12.952Z,19.49
2017-06-08T03:38:45.229Z,19.5
2017-06-08T03:39:17.512Z,19.5
2017-06-08T03:39:49.790Z,19.47
2017-06-08T03:40:22.053Z,19.46
2017-06-08T03:40:54.329Z,19.55
2017-06-08T03:41:26.618Z,19.47
2017-06-08T03:41:58.900Z,19.45
2017-06-08T03:42:31.168Z,19.46
2017-06-08T03:43:03.443Z,19.5
2017-06-08T03:43:35.767Z,19.5
2017-06-08T03:44:08.051Z,19.49
2017-06-08T03:44:40.323Z,19.45
2017-06-08T03:45:12.603Z,19.43
2017-06-08T03:45:44.881Z,19.46
2017-06-08T03:46:17.161Z,19.47
2017-06-08T03:46:49.431Z,19.5
2017-06-08T03:47:21.732Z,19.49
2017-06-08T03:47:54.017Z,19.52
2017-06-08T03:48:26.280Z,19.46
2017-06-08T03:48:58.544Z,19.5
2017-06-08T03:49:30.829Z,19.45
2017-06-08T03:50:03.143Z,19.53
2017-06-08T03:50:35.476Z,19.49
2017-06-08T03:51:07.768Z,19.53
2017-06-08T03:51:40.048Z,19.5
2017-06-08T03:52:12.324Z,19.5
2017-06-08T03:52:44.608Z,19.53
2017-06-08T03:53:17.440Z,19.47
2017-06-08T03:53:49.835Z,19.52
2017-06-08T03:54:22.101Z,19.52
2017-06-08T03:54:54.350Z,19.53
2017-06-08T03:55:26.611Z,19.46
2017-06-08T03:55:58.931Z,19.52
2017-06-08T03:56:31.909Z,19.49
2017-06-08T03:57:04.158Z,19.52
2017-06-08T03:57:36.407Z,19.52
2017-06-08T03:58:08.671Z,19.43
2017-06-08T03:58:40.921Z,19.5
2017-06-08T03:59:13.183Z,19.49
2017-06-08T03:59:45.445Z,19.53
2017-06-08T04:00:17.706Z,19.47
2017-06-08T04:00:49.950Z,19.57
2017-06-08T04:01:22.310Z,19.5
2017-06-08T04:01:54.572Z,19.47
2017-06-08T04:02:26.813Z,19.56
2017-06-08T04:02:59.072Z,19.55
2017-06-08T04:03:31.355Z,19.49
2017-06-08T04:04:03.631Z,19.55
2017-06-08T04:04:35.905Z,19.52
2017-06-08T04:05:08.183Z,19.5
2017-06-08T04:05:40.455Z,19.53
2017-06-08T04:06:12.732Z,19.47
2017-06-08T04:06:45.012Z,19.5
2017-06-08T04:07:17.292Z,19.49
2017-06-08T04:07:49.597Z,19.49
2017-06-08T04:08:21.877Z,19.52
2017-06-08T04:08:54.153Z,19.53
2017-06-08T04:09:26.421Z,19.47
2017-06-08T04:09:58.702Z,19.5
2017-06-08T04:10:30.961Z,19.55
2017-06-08T04:11:03.239Z,19.55
2017-06-08T04:11:35.515Z,19.53
2017-06-08T04:12:07.842Z,19.52
2017-06-08T04:12:40.116Z,19.49
2017-06-08T04:13:12.359Z,19.52
2017-06-08T04:13:44.604Z,19.53
2017-06-08T04:14:16.853Z,19.5
2017-06-08T04:14:49.085Z,19.47
2017-06-08T04:15:21.345Z,19.57
2017-06-08T04:15:53.593Z,19.55
2017-06-08T04:16:25.833Z,19.52
2017-06-08T04:16:58.083Z,19.56
2017-06-08T04:17:30.338Z,19.61
2017-06-08T04:18:02.574Z,19.49
2017-06-08T04:18:34.818Z,19.57
2017-06-08T04:19:07.070Z,19.55
2017-06-08T04:19:39.320Z,19.49
2017-06-08T04:20:11.576Z,19.5
2017-06-08T04:20:43.905Z,19.56
2017-06-08T04:21:16.183Z,19.6
2017-06-08T04:21:49.324Z,19.49
2017-06-08T04:22:21.577Z,19.61
2017-06-08T04:22:53.823Z,19.47
2017-06-08T04:23:26.074Z,19.61
2017-06-08T04:23:58.344Z,19.5
2017-06-08T04:24:30.611Z,19.52
2017-06-08T04:25:02.858Z,19.53
2017-06-08T04:25:35.105Z,19.53
2017-06-08T04:26:07.371Z,19.55
2017-06-08T04:26:39.646Z,19.61
2017-06-08T04:27:11.897Z,19.57
2017-06-08T04:27:44.144Z,19.64
2017-06-08T04:28:17.384Z,19.61
2017-06-08T04:28:49.639Z,19.63
2017-06-08T04:29:21.891Z,19.57
2017-06-08T04:29:54.170Z,19.61
2017-06-08T04:30:26.420Z,19.64
2017-06-08T04:30:58.662Z,19.65
2017-06-08T04:31:31.820Z,19.57
2017-06-08T04:32:04.075Z,19.56
2017-06-08T04:32:36.350Z,19.57
2017-06-08T04:33:08.605Z,19.61
2017-06-08T04:33:40.861Z,19.64
2017-06-08T04:34:13.123Z,19.64
2017-06-08T04:34:45.384Z,19.6
2017-06-08T04:35:17.626Z,19.64
2017-06-08T04:35:49.872Z,19.61
2017-06-08T04:36:22.867Z,19.57
2017-06-08T04:36:55.108Z,19.64
2017-06-08T04:37:27.371Z,19.53
2017-06-08T04:37:59.683Z,19.63
2017-06-08T04:38:31.932Z,19.6
2017-06-08T04:39:04.186Z,19.63
2017-06-08T04:39:36.434Z,19.65
2017-06-08T04:40:08.732Z,19.61
2017-06-08T04:40:40.991Z,19.57
2017-06-08T04:41:13.391Z,19.68
2017-06-08T04:41:45.632Z,19.65
2017-06-08T04:42:17.868Z,19.64
2017-06-08T04:42:50.135Z,19.63
2017-06-08T04:43:22.402Z,19.65
2017-06-08T04:43:54.690Z,19.65
2017-06-08T04:44:26.973Z,19.68
2017-06-08T04:44:59.247Z,19.67
2017-06-08T04:45:31.527Z,19.65
2017-06-08T04:46:03.802Z,19.61
2017-06-08T04:46:36.087Z,19.67
2017-06-08T04:47:08.362Z,19.6
2017-06-08T04:47:40.631Z,19.63
2017-06-08T04:48:12.922Z,19.68
2017-06-08T04:48:45.205Z,19.65
2017-06-08T04:49:17.477Z,19.65
2017-06-08T04:49:49.750Z,19.65
2017-06-08T04:50:22.026Z,19.65
2017-06-08T04:50:54.307Z,19.67
2017-06-08T04:51:26.583Z,19.65
2017-06-08T04:51:58.874Z,19.7
2017-06-08T04:52:31.160Z,19.7
2017-06-08T04:53:03.442Z,19.71
2017-06-08T04:53:35.726Z,19.65
2017-06-08T04:54:08.000Z,19.65
2017-06-08T04:54:40.284Z,19.64
2017-06-08T04:55:12.559Z,19.7
2017-06-08T04:55:44.845Z,19.71
2017-06-08T04:56:17.119Z,19.68
2017-06-08T04:56:49.386Z,19.65
2017-06-08T04:57:21.676Z,19.68
2017-06-08T04:57:53.967Z,19.67
2017-06-08T04:58:26.236Z,19.68
2017-06-08T04:58:58.529Z,19.67
2017-06-08T04:59:30.808Z,19.67
2017-06-08T05:00:03.097Z,19.67
2017-06-08T05:00:35.434Z,19.7
2017-06-08T05:01:07.723Z,19.71
2017-06-08T05:01:40.002Z,19.68
2017-06-08T05:02:12.274Z,19.67
2017-06-08T05:02:44.550Z,19.65
2017-06-08T05:03:16.832Z,19.68
2017-06-08T05:03:49.105Z,19.75
2017-06-08T05:04:21.439Z,19.72
2017-06-08T05:04:53.727Z,19.7
2017-06-08T05:05:26.018Z,19.72
2017-06-08T05:05:58.303Z,19.75
2017-06-08T05:06:30.577Z,19.67
2017-06-08T05:07:02.854Z,19.71
2017-06-08T05:07:35.138Z,19.71
2017-06-08T05:08:07.413Z,19.68
2017-06-08T05:08:39.698Z,19.71
2017-06-08T05:09:11.967Z,19.72
2017-06-08T05:09:44.253Z,19.75
2017-06-08T05:10:16.578Z,19.75
2017-06-08T05:10:48.849Z,19.74
2017-06-08T05:11:21.122Z,19.78
2017-06-08T05:11:53.397Z,19.72
2017-06-08T05:12:25.664Z,19.74
2017-06-08T05:12:57.939Z,19.82
2017-06-08T05:13:30.204Z,19.57
2017-06-08T05:14:02.471Z,19.79
2017-06-08T05:14:34.734Z,19.78
2017-06-08T05:15:06.985Z,19.83
2017-06-08T05:15:39.230Z,19.79
2017-06-08T05:16:12.276Z,19.8
2017-06-08T05:16:44.535Z,19.78
2017-06-08T05:17:16.776Z,19.79
2017-06-08T05:17:49.177Z,19.75
2017-06-08T05:18:21.482Z,19.78
2017-06-08T05:18:53.735Z,19.74
2017-06-08T05:19:25.980Z,19.78
2017-06-08T05:19:58.245Z,19.75
2017-06-08T05:20:31.336Z,19.78
2017-06-08T05:21:03.588Z,19.78
2017-06-08T05:21:35.843Z,19.82
2017-06-08T05:22:08.094Z,19.74
2017-06-08T05:22:40.362Z,19.8
2017-06-08T05:23:12.638Z,19.82
2017-06-08T05:23:44.942Z,19.8
2017-06-08T05:24:17.226Z,19.82
2017-06-08T05:24:49.513Z,19.82
2017-06-08T05:25:21.783Z,19.78
2017-06-08T05:25:54.071Z,19.8
2017-06-08T05:26:26.361Z,19.82
2017-06-08T05:26:58.655Z,19.8
2017-06-08T05:27:30.923Z,19.85
2017-06-08T05:28:03.374Z,19.79
2017-06-08T05:28:35.651Z,19.85
2017-06-08T05:29:07.936Z,19.8
2017-06-08T05:29:40.240Z,19.82
2017-06-08T05:30:12.508Z,19.75
2017-06-08T05:30:44.795Z,19.89
2017-06-08T05:31:17.081Z,19.85
2017-06-08T05:31:49.351Z,19.9
2017-06-08T05:32:21.615Z,19.89
2017-06-08T05:32:53.907Z,19.87
2017-06-08T05:33:26.179Z,19.85
2017-06-08T05:33:58.474Z,19.83
2017-06-08T05:34:30.752Z,19.82
2017-06-08T05:35:03.032Z,19.89
2017-06-08T05:35:35.321Z,19.85
2017-06-08T05:36:07.613Z,19.79
2017-06-08T05:36:39.900Z,19.8
2017-06-08T05:37:12.182Z,19.89
2017-06-08T05:37:44.464Z,19.86
2017-06-08T05:38:16.718Z,19.87
2017-06-08T05:38:48.996Z,19.93
2017-06-08T05:39:21.268Z,19.95
2017-06-08T05:39:53.562Z,19.93
2017-06-08T05:40:25.838Z,19.83
2017-06-08T05:40:58.117Z,19.9
2017-06-08T05:41:30.404Z,19.9
2017-06-08T05:42:02.676Z,19.97
2017-06-08T05:42:34.952Z,19.9
2017-06-08T05:43:07.244Z,19.83
2017-06-08T05:43:39.529Z,19.9
2017-06-08T05:44:11.807Z,19.9
2017-06-08T05:44:44.082Z,19.86
2017-06-08T05:45:16.367Z,19.93
2017-06-08T05:45:48.654Z,19.95
2017-06-08T05:46:20.941Z,19.93
2017-06-08T05:46:53.206Z,19.93
2017-06-08T05:47:25.490Z,19.93
2017-06-08T05:47:57.765Z,19.95
2017-06-08T05:48:30.030Z,19.97
2017-06-08T05:49:02.306Z,19.97
2017-06-08T05:49:34.582Z,19.9
2017-06-08T05:50:06.865Z,20.01
2017-06-08T05:50:39.126Z,19.98
2017-06-08T05:51:11.406Z,20.05
2017-06-08T05:51:43.678Z,19.95
2017-06-08T05:52:15.952Z,20.01
2017-06-08T05:52:48.232Z,20
2017-06-08T05:53:20.476Z,20.1
2017-06-08T05:53:53.371Z,20.05
2017-06-08T05:54:25.617Z,20.04
2017-06-08T05:54:57.878Z,20.1
2017-06-08T05:55:30.132Z,20.01
2017-06-08T05:56:02.383Z,20.07
2017-06-08T05:56:34.723Z,20.01
2017-06-08T05:57:06.976Z,20.04
2017-06-08T05:57:39.238Z,20.05
2017-06-08T05:58:11.508Z,20.08
2017-06-08T05:58:43.787Z,20.07
2017-06-08T05:59:16.048Z,20.07
2017-06-08T05:59:48.928Z,20.11
2017-06-08T06:00:21.196Z,20.04
2017-06-08T06:00:53.471Z,20.08
2017-06-08T06:01:25.720Z,20.08
2017-06-08T06:01:58.934Z,20.08
2017-06-08T06:02:31.237Z,20.07
2017-06-08T06:03:03.507Z,20.15
2017-06-08T06:03:35.771Z,20.1
2017-06-08T06:04:08.027Z,20.12
2017-06-08T06:04:40.281Z,20.18
2017-06-08T06:05:12.568Z,20.16
2017-06-08T06:05:44.821Z,20.1
2017-06-08T06:06:17.095Z,20.16
2017-06-08T06:06:49.349Z,20.23
2017-06-08T06:07:22.431Z,20.1
2017-06-08T06:07:54.732Z,20.1
2017-06-08T06:08:28.536Z,20.2
2017-06-08T06:09:00.832Z,20.2
2017-06-08T06:09:36.977Z,20.23
2017-06-08T06:10:09.247Z,20.2
2017-06-08T06:10:41.510Z,20.18
2017-06-08T06:11:13.772Z,20.15
2017-06-08T06:11:46.031Z,20.18
2017-06-08T06:12:18.285Z,20.2
2017-06-08T06:12:50.560Z,20.16
2017-06-08T06:13:22.847Z,20.18
2017-06-08T06:13:55.109Z,20.11
2017-06-08T06:14:28.021Z,20.18
2017-06-08T06:15:00.278Z,20.15
2017-06-08T06:15:32.532Z,20.18
2017-06-08T06:16:04.794Z,20.29
2017-06-08T06:16:37.110Z,20.19
2017-06-08T06:17:09.387Z,20.15
2017-06-08T06:17:42.479Z,20.2
2017-06-08T06:18:14.773Z,20.22
2017-06-08T06:18:51.096Z,20.11
2017-06-08T06:19:24.082Z,20.23
2017-06-08T06:19:57.116Z,20.29
2017-06-08T06:20:30.531Z,20.18
2017-06-08T06:21:03.946Z,20.29
2017-06-08T06:21:38.036Z,20.25
2017-06-08T06:22:12.024Z,20.2
2017-06-08T06:22:44.304Z,20.22
2017-06-08T06:23:16.594Z,20.22
2017-06-08T06:23:49.039Z,20.2
2017-06-08T06:24:21.419Z,20.22
2017-06-08T06:26:12.938Z,20.2
2017-06-08T06:26:45.204Z,20.27
2017-06-08T06:27:17.636Z,20.3
2017-06-08T06:29:09.448Z,20.25
2017-06-08T06:29:41.722Z,20.27
2017-06-08T06:30:14.061Z,20.27
2017-06-08T06:30:46.349Z,20.22
2017-06-08T06:31:18.631Z,20.26
2017-06-08T06:31:50.906Z,20.22
2017-06-08T06:32:23.175Z,20.22
2017-06-08T06:32:55.447Z,20.23
2017-06-08T06:33:27.812Z,20.32
2017-06-08T06:34:00.230Z,20.2
2017-06-08T06:34:31.785Z,20.26
2017-06-08T06:35:04.052Z,20.26
2017-06-08T06:35:37.900Z,20.22
2017-06-08T06:36:11.188Z,20.29
2017-06-08T06:36:43.447Z,20.25
2017-06-08T06:37:15.868Z,20.25
2017-06-08T06:37:48.147Z,20.26
2017-06-08T06:38:20.419Z,20.25
2017-06-08T06:38:52.706Z,20.29
2017-06-08T06:39:24.951Z,20.22
2017-06-08T06:39:57.231Z,20.26
2017-06-08T06:40:29.509Z,20.37
2017-06-08T06:41:01.815Z,20.37
2017-06-08T06:41:34.077Z,20.35
2017-06-08T06:42:06.357Z,20.38
2017-06-08T06:42:38.625Z,20.37
2017-06-08T06:43:10.910Z,20.35
2017-06-08T06:43:43.179Z,20.3
2017-06-08T06:44:15.461Z,20.4
2017-06-08T06:44:47.763Z,20.35
2017-06-08T06:45:20.031Z,20.37
2017-06-08T06:45:52.329Z,20.35
2017-06-08T06:46:24.675Z,20.38
2017-06-08T06:46:56.966Z,20.38
2017-06-08T06:47:29.233Z,20.42
2017-06-08T06:48:01.527Z,20.34
2017-06-08T06:48:33.822Z,20.42
2017-06-08T06:49:06.102Z,20.34
2017-06-08T06:49:38.356Z,20.4
2017-06-08T06:50:10.623Z,20.37
2017-06-08T06:50:42.895Z,20.37
2017-06-08T06:51:15.157Z,20.37
2017-06-08T06:51:47.480Z,20.4
2017-06-08T06:52:19.749Z,20.46
2017-06-08T06:52:52.158Z,20.37
2017-06-08T06:53:24.431Z,20.42
2017-06-08T06:53:56.724Z,20.37
2017-06-08T06:54:29.278Z,20.37
2017-06-08T06:55:01.548Z,20.44
2017-06-08T06:55:33.832Z,20.38
2017-06-08T06:56:06.139Z,20.38
2017-06-08T06:56:38.420Z,20.38
2017-06-08T06:57:10.701Z,20.38
2017-06-08T06:57:42.969Z,20.35
2017-06-08T06:58:15.268Z,20.46
2017-06-08T06:58:47.546Z,20.42
2017-06-08T06:59:20.867Z,20.37
2017-06-08T06:59:53.187Z,20.41
2017-06-08T07:00:25.605Z,20.37
2017-06-08T07:00:57.888Z,20.46